Flight Track Log - Related Links

Times and Time Zones

All times are in EDT time to prevent confusion due to time zone crossing. See the N560RP flight status page for this flight to view local times or setup timezone preferences in your user account.

Time Position Orientation Groundspeed Altitude Reporting Facility
EDT Latitude Longitude Course Direction KTS MPH feet Rate Location/Type
Fri 07:45:59 PM 38.7972 -90.4306 340° North 182 209 4,000  Level Kansas City Center
Fri 07:47:00 PM 38.8644 -90.4239 North 239 275 6,200 2,341 Climbing Kansas City Center
Fri 07:48:02 PM 38.9439 -90.3947 16° North 278 320 8,800 2,806 Climbing Kansas City Center
Fri 07:49:04 PM 39.0222 -90.3656 16° North 291 335 12,000 3,097 Climbing Kansas City Center
Fri 07:50:06 PM 39.0897 -90.3083 33° Northeast 290 334 15,200 3,435 Climbing Kansas City Center
Fri 07:51:08 PM 39.1686 -90.2406 34° Northeast 286 329 19,100 3,145 Climbing Kansas City Center
Fri 07:52:10 PM 39.2350 -90.1869 32° Northeast 283 326 21,700 1,854 Climbing Kansas City Center
Fri 07:53:11 PM 39.3069 -90.1261 33° Northeast 304 350 22,900 1,220 Climbing Kansas City Center
Fri 07:54:13 PM 39.3903 -90.0567 33° Northeast 347 399 24,200 1,935 Climbing Kansas City Center
Fri 07:55:15 PM 39.4683 -89.9897 34° Northeast 337 388 26,900 1,355 Climbing Kansas City Center
Fri 07:56:17 PM 39.5511 -89.9203 33° Northeast 352 405 27,000 48 Climbing Kansas City Center
Fri 07:57:19 PM 39.6647 -89.8264 32° Northeast 398 458 27,000  Level Kansas City Center
Fri 07:58:21 PM 39.7622 -89.7433 33° Northeast 418 481 27,000  Level Kansas City Center
Fri 07:59:23 PM 39.8619 -89.6597 33° Northeast 426 490 27,000  Level Kansas City Center
Fri 08:00:33 PM 39.9728 -89.5519 37° Northeast 421 484 27,000  Level Chicago Center
Fri 08:01:35 PM 40.0667 -89.4644 35° Northeast 417 480 27,000  Level Chicago Center
Fri 08:02:37 PM 40.1614 -89.3728 36° Northeast 424 488 27,000 -439 Level Chicago Center
Fri 08:03:38 PM 40.2556 -89.2808 37° Northeast 425 489 26,100 -1,610 Descending Chicago Center
Fri 08:04:40 PM 40.3803 -89.2142 22° Northeast 409 471 23,700 -2,274 Descending Chicago Center
Fri 08:05:42 PM 40.4869 -89.1681 18° North 408 470 21,400 -2,226 Descending Chicago Center
Fri 08:06:44 PM 40.5864 -89.1172 21° North 391 450 19,100 -2,274 Descending Chicago Center
Fri 08:07:46 PM 40.6842 -89.0719 19° North 377 434 16,700 -2,081 Descending Chicago Center
Fri 08:08:48 PM 40.7839 -89.0603 North 366 421 14,800 -1,548 Descending Chicago Center
Fri 08:09:50 PM 40.8800 -89.0494 North 356 410 13,500 -1,403 Descending Chicago Center
Fri 08:10:52 PM 40.9856 -88.9889 23° Northeast 349 402 11,900 -1,403 Descending Chicago Center
Fri 08:11:54 PM 41.0728 -88.9331 26° Northeast 334 384 10,600 -1,016 Descending Chicago Center
Fri 08:12:56 PM 41.1592 -88.8858 22° Northeast 334 384 9,800 -387 Descending Chicago Center
Fri 08:13:58 PM 41.2389 -88.8356 25° Northeast 324 373 9,800 48 Level Chicago Center
Fri 08:15:00 PM 41.3222 -88.7889 23° Northeast 326 375 9,900 -726 Climbing Chicago Center
Fri 08:16:02 PM 41.3978 -88.7425 25° Northeast 301 346 8,300 -1,548 Descending Chicago Center
Fri 08:17:04 PM 41.4758 -88.6964 24° Northeast 306 352 6,700 -1,597 Descending Chicago Center
Fri 08:18:06 PM 41.5500 -88.6522 24° Northeast 297 342 5,000 -823 Descending Chicago Center
Fri 08:19:08 PM 41.6256 -88.5897 32° Northeast 272 313 5,000 -194 Level Chicago Center
Fri 08:20:10 PM 41.6619 -88.5053 60° Northeast 264 304 4,600 -488 Descending Chicago Center
Fri 08:21:11 PM 41.6939 -88.4222 63° Northeast 257 296 4,000 -634 Descending Chicago Center
Fri 08:22:13 PM 41.7264 -88.3436 61° Northeast 250 288 3,300 -532 Descending Chicago Center
Fri 08:23:15 PM 41.7606 -88.2994 44° Northeast 203 234 2,900 -339 Descending Chicago Center
Fri 08:24:17 PM 41.8083 -88.2822 15° North 186 214 2,600 -629 Descending Chicago Center
Fri 08:25:19 PM 41.8558 -88.2672 13° North 154 177 1,600 -726 Descending Chicago Center
Fri 08:26:21 PM 41.8803 -88.2583 15° North 114 131 1,100 -484 Descending Chicago Center
Fri 08:28:00 PM 41.9000 -88.2333 48° Northeast  Level FlightAware Approximate
Fri 08:35:00 PM 41.9071 -88.2480 48° Northeast  Level Estimated

Login

Don't have an account? Register now (free) for customized features, flight alerts, and more!